sensor_id;sensor_type;location;lat;lon;timestamp;P1;durP1;ratioP1;P2;durP2;ratioP2
43877;SDS011;29815;48.184;11.268;2023-01-24T00:02:23;42.25;;;22.08;;
43877;SDS011;29815;48.184;11.268;2023-01-24T00:04:53;40.50;;;23.73;;
43877;SDS011;29815;48.184;11.268;2023-01-24T00:07:22;34.97;;;22.73;;
43877;SDS011;29815;48.184;11.268;2023-01-24T00:09:52;43.95;;;24.23;;
43877;SDS011;29815;48.184;11.268;2023-01-24T00:12:24;43.03;;;24.83;;
43877;SDS011;29815;48.184;11.268;2023-01-24T00:14:53;38.25;;;23.65;;
43877;SDS011;29815;48.184;11.268;2023-01-24T00:21:36;44.38;;;22.48;;
43877;SDS011;29815;48.184;11.268;2023-01-24T00:24:06;41.33;;;23.75;;
43877;SDS011;29815;48.184;11.268;2023-01-24T00:26:38;38.70;;;21.80;;
43877;SDS011;29815;48.184;11.268;2023-01-24T00:32:08;38.15;;;23.23;;
43877;SDS011;29815;48.184;11.268;2023-01-24T00:34:39;40.30;;;21.75;;
43877;SDS011;29815;48.184;11.268;2023-01-24T00:37:08;40.28;;;23.27;;
43877;SDS011;29815;48.184;11.268;2023-01-24T00:39:41;36.47;;;21.88;;
43877;SDS011;29815;48.184;11.268;2023-01-24T00:42:13;36.72;;;21.63;;
43877;SDS011;29815;48.184;11.268;2023-01-24T00:44:43;36.97;;;21.42;;
43877;SDS011;29815;48.184;11.268;2023-01-24T00:47:13;37.05;;;23.35;;
43877;SDS011;29815;48.184;11.268;2023-01-24T00:49:43;34.60;;;21.10;;
43877;SDS011;29815;48.184;11.268;2023-01-24T00:52:18;39.03;;;21.92;;
43877;SDS011;29815;48.184;11.268;2023-01-24T00:54:48;36.00;;;22.55;;
43877;SDS011;29815;48.184;11.268;2023-01-24T00:57:19;38.78;;;21.63;;
43877;SDS011;29815;48.184;11.268;2023-01-24T00:59:49;40.42;;;20.65;;
43877;SDS011;29815;48.184;11.268;2023-01-24T01:02:19;34.60;;;20.77;;
43877;SDS011;29815;48.184;11.268;2023-01-24T01:04:49;32.55;;;20.50;;
43877;SDS011;29815;48.184;11.268;2023-01-24T01:07:19;39.85;;;21.75;;
43877;SDS011;29815;48.184;11.268;2023-01-24T01:12:48;35.85;;;19.83;;
43877;SDS011;29815;48.184;11.268;2023-01-24T01:15:18;33.97;;;20.05;;
43877;SDS011;29815;48.184;11.268;2023-01-24T01:17:49;39.30;;;21.23;;
43877;SDS011;29815;48.184;11.268;2023-01-24T01:20:19;33.45;;;20.48;;
43877;SDS011;29815;48.184;11.268;2023-01-24T01:22:49;41.65;;;21.23;;
43877;SDS011;29815;48.184;11.268;2023-01-24T01:25:19;37.92;;;21.88;;
43877;SDS011;29815;48.184;11.268;2023-01-24T01:27:50;39.08;;;22.23;;
43877;SDS011;29815;48.184;11.268;2023-01-24T01:30:19;39.20;;;21.58;;
43877;SDS011;29815;48.184;11.268;2023-01-24T01:32:49;38.45;;;21.15;;
43877;SDS011;29815;48.184;11.268;2023-01-24T01:35:19;39.40;;;22.20;;
43877;SDS011;29815;48.184;11.268;2023-01-24T01:37:49;37.33;;;20.63;;
43877;SDS011;29815;48.184;11.268;2023-01-24T01:40:18;35.13;;;19.35;;
43877;SDS011;29815;48.184;11.268;2023-01-24T01:42:50;40.97;;;23.42;;
43877;SDS011;29815;48.184;11.268;2023-01-24T01:45:29;35.47;;;21.45;;
43877;SDS011;29815;48.184;11.268;2023-01-24T01:48:13;38.45;;;21.02;;
43877;SDS011;29815;48.184;11.268;2023-01-24T01:50:56;38.97;;;20.47;;
43877;SDS011;29815;48.184;11.268;2023-01-24T01:53:35;41.92;;;21.95;;
43877;SDS011;29815;48.184;11.268;2023-01-24T01:56:13;38.30;;;22.17;;
43877;SDS011;29815;48.184;11.268;2023-01-24T01:58:54;36.50;;;21.65;;
43877;SDS011;29815;48.184;11.268;2023-01-24T02:01:28;41.63;;;22.30;;
43877;SDS011;29815;48.184;11.268;2023-01-24T02:04:00;36.55;;;20.70;;
43877;SDS011;29815;48.184;11.268;2023-01-24T02:06:42;43.38;;;22.27;;
43877;SDS011;29815;48.184;11.268;2023-01-24T02:09:21;38.40;;;21.65;;
43877;SDS011;29815;48.184;11.268;2023-01-24T02:12:01;38.85;;;21.98;;
43877;SDS011;29815;48.184;11.268;2023-01-24T02:14:36;38.03;;;22.75;;
43877;SDS011;29815;48.184;11.268;2023-01-24T02:17:25;40.38;;;22.00;;
43877;SDS011;29815;48.184;11.268;2023-01-24T02:20:02;39.33;;;21.52;;
43877;SDS011;29815;48.184;11.268;2023-01-24T02:22:50;39.00;;;21.77;;
43877;SDS011;29815;48.184;11.268;2023-01-24T02:25:34;41.55;;;23.45;;
43877;SDS011;29815;48.184;11.268;2023-01-24T02:28:10;38.53;;;22.05;;
43877;SDS011;29815;48.184;11.268;2023-01-24T02:30:40;44.58;;;22.58;;
43877;SDS011;29815;48.184;11.268;2023-01-24T02:33:11;41.55;;;23.65;;
43877;SDS011;29815;48.184;11.268;2023-01-24T02:35:42;45.25;;;24.35;;
43877;SDS011;29815;48.184;11.268;2023-01-24T02:38:14;45.97;;;24.00;;
43877;SDS011;29815;48.184;11.268;2023-01-24T02:40:49;34.88;;;21.50;;
43877;SDS011;29815;48.184;11.268;2023-01-24T02:43:24;39.50;;;23.02;;
43877;SDS011;29815;48.184;11.268;2023-01-24T02:45:56;44.78;;;24.60;;
43877;SDS011;29815;48.184;11.268;2023-01-24T02:48:26;42.13;;;23.27;;
43877;SDS011;29815;48.184;11.268;2023-01-24T02:50:55;41.92;;;23.00;;
43877;SDS011;29815;48.184;11.268;2023-01-24T02:53:42;42.90;;;22.88;;
43877;SDS011;29815;48.184;11.268;2023-01-24T02:56:12;48.55;;;24.10;;
43877;SDS011;29815;48.184;11.268;2023-01-24T02:59:01;42.85;;;22.92;;
43877;SDS011;29815;48.184;11.268;2023-01-24T03:01:32;47.25;;;23.60;;
43877;SDS011;29815;48.184;11.268;2023-01-24T03:04:02;42.85;;;23.38;;
43877;SDS011;29815;48.184;11.268;2023-01-24T03:06:33;48.03;;;24.50;;
43877;SDS011;29815;48.184;11.268;2023-01-24T03:09:03;50.80;;;24.77;;
43877;SDS011;29815;48.184;11.268;2023-01-24T03:11:48;45.13;;;22.90;;
43877;SDS011;29815;48.184;11.268;2023-01-24T03:14:19;43.20;;;23.33;;
43877;SDS011;29815;48.184;11.268;2023-01-24T03:17:06;48.33;;;22.73;;
43877;SDS011;29815;48.184;11.268;2023-01-24T03:19:54;45.63;;;24.63;;
43877;SDS011;29815;48.184;11.268;2023-01-24T03:22:41;47.38;;;23.92;;
43877;SDS011;29815;48.184;11.268;2023-01-24T03:25:28;45.92;;;23.98;;
43877;SDS011;29815;48.184;11.268;2023-01-24T03:28:15;49.15;;;24.63;;
43877;SDS011;29815;48.184;11.268;2023-01-24T03:31:07;40.45;;;22.65;;
43877;SDS011;29815;48.184;11.268;2023-01-24T03:33:54;42.05;;;22.95;;
43877;SDS011;29815;48.184;11.268;2023-01-24T03:36:42;50.85;;;23.23;;
43877;SDS011;29815;48.184;11.268;2023-01-24T03:39:12;47.17;;;25.45;;
43877;SDS011;29815;48.184;11.268;2023-01-24T03:42:02;51.05;;;23.30;;
43877;SDS011;29815;48.184;11.268;2023-01-24T03:44:32;46.13;;;24.20;;
43877;SDS011;29815;48.184;11.268;2023-01-24T03:47:03;47.38;;;24.85;;
43877;SDS011;29815;48.184;11.268;2023-01-24T03:49:33;50.47;;;25.77;;
43877;SDS011;29815;48.184;11.268;2023-01-24T03:52:20;45.13;;;22.92;;
43877;SDS011;29815;48.184;11.268;2023-01-24T03:55:00;48.08;;;22.33;;
43877;SDS011;29815;48.184;11.268;2023-01-24T03:57:30;53.08;;;25.23;;
43877;SDS011;29815;48.184;11.268;2023-01-24T04:00:05;47.70;;;24.63;;
43877;SDS011;29815;48.184;11.268;2023-01-24T04:02:50;44.75;;;22.77;;
43877;SDS011;29815;48.184;11.268;2023-01-24T04:05:21;46.40;;;24.55;;
43877;SDS011;29815;48.184;11.268;2023-01-24T04:07:52;55.45;;;25.08;;
43877;SDS011;29815;48.184;11.268;2023-01-24T04:10:22;51.15;;;24.02;;
43877;SDS011;29815;48.184;11.268;2023-01-24T04:12:53;48.38;;;25.42;;
43877;SDS011;29815;48.184;11.268;2023-01-24T04:15:25;50.40;;;24.15;;
43877;SDS011;29815;48.184;11.268;2023-01-24T04:18:18;49.25;;;25.55;;
43877;SDS011;29815;48.184;11.268;2023-01-24T04:20:48;53.10;;;25.70;;
43877;SDS011;29815;48.184;11.268;2023-01-24T04:23:18;48.08;;;24.33;;
43877;SDS011;29815;48.184;11.268;2023-01-24T04:25:50;49.38;;;26.15;;
43877;SDS011;29815;48.184;11.268;2023-01-24T04:28:22;53.97;;;25.05;;
43877;SDS011;29815;48.184;11.268;2023-01-24T04:30:55;52.92;;;24.73;;
43877;SDS011;29815;48.184;11.268;2023-01-24T04:33:46;54.65;;;24.70;;
43877;SDS011;29815;48.184;11.268;2023-01-24T04:36:15;53.47;;;27.20;;
43877;SDS011;29815;48.184;11.268;2023-01-24T04:38:45;57.33;;;24.98;;
43877;SDS011;29815;48.184;11.268;2023-01-24T04:41:29;43.10;;;22.10;;
43877;SDS011;29815;48.184;11.268;2023-01-24T04:43:59;50.30;;;22.63;;
43877;SDS011;29815;48.184;11.268;2023-01-24T04:46:29;49.15;;;23.05;;
43877;SDS011;29815;48.184;11.268;2023-01-24T04:49:01;45.50;;;21.90;;
43877;SDS011;29815;48.184;11.268;2023-01-24T04:51:41;45.20;;;23.48;;
43877;SDS011;29815;48.184;11.268;2023-01-24T04:54:17;45.38;;;23.15;;
43877;SDS011;29815;48.184;11.268;2023-01-24T04:56:49;50.75;;;23.58;;
43877;SDS011;29815;48.184;11.268;2023-01-24T04:59:19;45.53;;;23.20;;
43877;SDS011;29815;48.184;11.268;2023-01-24T05:01:50;47.50;;;22.45;;
43877;SDS011;29815;48.184;11.268;2023-01-24T05:04:34;47.78;;;23.40;;
43877;SDS011;29815;48.184;11.268;2023-01-24T05:07:04;50.67;;;23.42;;
43877;SDS011;29815;48.184;11.268;2023-01-24T05:09:35;52.97;;;23.45;;
43877;SDS011;29815;48.184;11.268;2023-01-24T05:12:08;55.78;;;25.98;;
43877;SDS011;29815;48.184;11.268;2023-01-24T05:14:38;41.75;;;21.08;;
43877;SDS011;29815;48.184;11.268;2023-01-24T05:17:08;48.35;;;23.65;;
43877;SDS011;29815;48.184;11.268;2023-01-24T05:19:39;44.30;;;23.05;;
43877;SDS011;29815;48.184;11.268;2023-01-24T05:22:09;48.28;;;22.67;;
43877;SDS011;29815;48.184;11.268;2023-01-24T05:24:42;50.03;;;24.08;;
43877;SDS011;29815;48.184;11.268;2023-01-24T05:27:11;55.78;;;25.20;;
43877;SDS011;29815;48.184;11.268;2023-01-24T05:29:44;53.65;;;24.98;;
43877;SDS011;29815;48.184;11.268;2023-01-24T05:32:14;50.80;;;23.98;;
43877;SDS011;29815;48.184;11.268;2023-01-24T05:34:45;54.00;;;26.45;;
43877;SDS011;29815;48.184;11.268;2023-01-24T05:37:16;57.22;;;27.65;;
43877;SDS011;29815;48.184;11.268;2023-01-24T05:39:45;56.58;;;25.40;;
43877;SDS011;29815;48.184;11.268;2023-01-24T05:42:15;54.83;;;25.33;;
43877;SDS011;29815;48.184;11.268;2023-01-24T05:44:48;50.03;;;25.17;;
43877;SDS011;29815;48.184;11.268;2023-01-24T05:47:18;54.67;;;26.42;;
43877;SDS011;29815;48.184;11.268;2023-01-24T05:49:49;59.70;;;26.90;;
43877;SDS011;29815;48.184;11.268;2023-01-24T05:52:20;57.72;;;27.73;;
43877;SDS011;29815;48.184;11.268;2023-01-24T05:54:51;55.00;;;25.73;;
43877;SDS011;29815;48.184;11.268;2023-01-24T05:57:26;52.17;;;26.42;;
43877;SDS011;29815;48.184;11.268;2023-01-24T06:00:25;54.88;;;25.15;;
43877;SDS011;29815;48.184;11.268;2023-01-24T06:03:13;52.33;;;25.98;;
43877;SDS011;29815;48.184;11.268;2023-01-24T06:05:48;50.88;;;24.13;;
43877;SDS011;29815;48.184;11.268;2023-01-24T06:08:27;42.53;;;18.83;;
43877;SDS011;29815;48.184;11.268;2023-01-24T06:11:00;45.95;;;24.75;;
43877;SDS011;29815;48.184;11.268;2023-01-24T06:13:33;54.53;;;25.23;;
43877;SDS011;29815;48.184;11.268;2023-01-24T06:16:04;49.55;;;25.27;;
43877;SDS011;29815;48.184;11.268;2023-01-24T06:18:38;52.60;;;24.65;;
43877;SDS011;29815;48.184;11.268;2023-01-24T06:21:15;45.10;;;24.45;;
43877;SDS011;29815;48.184;11.268;2023-01-24T06:24:01;46.88;;;25.38;;
43877;SDS011;29815;48.184;11.268;2023-01-24T06:26:45;55.97;;;25.08;;
43877;SDS011;29815;48.184;11.268;2023-01-24T06:29:17;50.72;;;24.23;;
43877;SDS011;29815;48.184;11.268;2023-01-24T06:31:52;53.00;;;25.90;;
43877;SDS011;29815;48.184;11.268;2023-01-24T06:34:46;54.38;;;24.17;;
43877;SDS011;29815;48.184;11.268;2023-01-24T06:37:41;51.50;;;23.17;;
43877;SDS011;29815;48.184;11.268;2023-01-24T06:40:17;46.20;;;25.90;;
43877;SDS011;29815;48.184;11.268;2023-01-24T06:42:50;47.63;;;23.65;;
43877;SDS011;29815;48.184;11.268;2023-01-24T06:45:22;51.70;;;27.85;;
43877;SDS011;29815;48.184;11.268;2023-01-24T06:47:52;47.03;;;24.13;;
43877;SDS011;29815;48.184;11.268;2023-01-24T06:50:25;48.10;;;25.35;;
43877;SDS011;29815;48.184;11.268;2023-01-24T06:53:00;49.40;;;23.33;;
43877;SDS011;29815;48.184;11.268;2023-01-24T06:55:30;59.75;;;25.95;;
43877;SDS011;29815;48.184;11.268;2023-01-24T06:58:00;55.00;;;25.90;;
43877;SDS011;29815;48.184;11.268;2023-01-24T07:00:31;46.33;;;24.98;;
43877;SDS011;29815;48.184;11.268;2023-01-24T07:03:01;50.30;;;25.08;;
43877;SDS011;29815;48.184;11.268;2023-01-24T07:08:07;44.50;;;24.33;;
43877;SDS011;29815;48.184;11.268;2023-01-24T07:10:37;46.35;;;22.77;;
43877;SDS011;29815;48.184;11.268;2023-01-24T07:13:07;45.83;;;23.70;;
43877;SDS011;29815;48.184;11.268;2023-01-24T07:15:36;53.20;;;25.80;;
43877;SDS011;29815;48.184;11.268;2023-01-24T07:18:06;47.83;;;22.85;;
43877;SDS011;29815;48.184;11.268;2023-01-24T07:20:38;42.55;;;23.15;;
43877;SDS011;29815;48.184;11.268;2023-01-24T07:23:13;50.47;;;24.25;;
43877;SDS011;29815;48.184;11.268;2023-01-24T07:25:51;57.80;;;25.33;;
43877;SDS011;29815;48.184;11.268;2023-01-24T07:28:22;49.60;;;24.05;;
43877;SDS011;29815;48.184;11.268;2023-01-24T07:30:52;52.67;;;25.75;;
43877;SDS011;29815;48.184;11.268;2023-01-24T07:33:22;52.00;;;28.23;;
43877;SDS011;29815;48.184;11.268;2023-01-24T07:35:51;57.67;;;24.83;;
43877;SDS011;29815;48.184;11.268;2023-01-24T07:38:22;43.20;;;24.58;;
43877;SDS011;29815;48.184;11.268;2023-01-24T07:40:52;49.63;;;23.85;;
43877;SDS011;29815;48.184;11.268;2023-01-24T07:43:22;52.53;;;24.60;;
43877;SDS011;29815;48.184;11.268;2023-01-24T07:45:51;47.13;;;22.17;;
43877;SDS011;29815;48.184;11.268;2023-01-24T07:48:21;48.30;;;22.83;;
43877;SDS011;29815;48.184;11.268;2023-01-24T07:50:50;51.58;;;23.48;;
43877;SDS011;29815;48.184;11.268;2023-01-24T07:53:23;45.08;;;23.27;;
43877;SDS011;29815;48.184;11.268;2023-01-24T07:55:53;55.83;;;25.67;;
43877;SDS011;29815;48.184;11.268;2023-01-24T07:58:29;45.20;;;23.27;;
43877;SDS011;29815;48.184;11.268;2023-01-24T08:00:59;46.45;;;23.10;;
43877;SDS011;29815;48.184;11.268;2023-01-24T08:03:31;53.05;;;26.20;;
43877;SDS011;29815;48.184;11.268;2023-01-24T08:06:03;45.85;;;23.33;;
43877;SDS011;29815;48.184;11.268;2023-01-24T08:08:34;48.38;;;24.73;;
43877;SDS011;29815;48.184;11.268;2023-01-24T08:11:04;47.85;;;23.50;;
43877;SDS011;29815;48.184;11.268;2023-01-24T08:13:34;48.33;;;22.88;;
43877;SDS011;29815;48.184;11.268;2023-01-24T08:16:04;47.42;;;24.42;;
43877;SDS011;29815;48.184;11.268;2023-01-24T08:18:36;48.55;;;23.60;;
43877;SDS011;29815;48.184;11.268;2023-01-24T08:21:06;45.45;;;23.88;;
43877;SDS011;29815;48.184;11.268;2023-01-24T08:23:38;52.30;;;23.30;;
43877;SDS011;29815;48.184;11.268;2023-01-24T08:26:07;53.55;;;25.10;;
43877;SDS011;29815;48.184;11.268;2023-01-24T08:28:37;51.17;;;26.13;;
43877;SDS011;29815;48.184;11.268;2023-01-24T08:31:06;42.35;;;23.25;;
43877;SDS011;29815;48.184;11.268;2023-01-24T08:33:36;48.85;;;25.40;;
43877;SDS011;29815;48.184;11.268;2023-01-24T08:36:06;47.10;;;21.63;;
43877;SDS011;29815;48.184;11.268;2023-01-24T08:38:35;48.03;;;23.52;;
43877;SDS011;29815;48.184;11.268;2023-01-24T08:41:06;47.00;;;21.77;;
43877;SDS011;29815;48.184;11.268;2023-01-24T08:43:36;54.17;;;26.25;;
43877;SDS011;29815;48.184;11.268;2023-01-24T08:46:05;43.88;;;22.83;;
43877;SDS011;29815;48.184;11.268;2023-01-24T08:48:35;47.38;;;22.42;;
43877;SDS011;29815;48.184;11.268;2023-01-24T08:51:05;45.28;;;24.90;;
43877;SDS011;29815;48.184;11.268;2023-01-24T08:53:35;42.33;;;22.17;;
43877;SDS011;29815;48.184;11.268;2023-01-24T08:56:06;38.58;;;20.05;;
43877;SDS011;29815;48.184;11.268;2023-01-24T08:58:35;38.10;;;21.35;;
43877;SDS011;29815;48.184;11.268;2023-01-24T09:01:05;44.10;;;22.58;;
43877;SDS011;29815;48.184;11.268;2023-01-24T09:03:36;43.30;;;23.83;;
43877;SDS011;29815;48.184;11.268;2023-01-24T09:06:06;45.20;;;23.65;;
43877;SDS011;29815;48.184;11.268;2023-01-24T09:08:35;44.90;;;22.33;;
43877;SDS011;29815;48.184;11.268;2023-01-24T09:11:06;43.70;;;24.90;;
43877;SDS011;29815;48.184;11.268;2023-01-24T09:13:37;52.60;;;25.15;;
43877;SDS011;29815;48.184;11.268;2023-01-24T09:16:06;46.45;;;22.20;;
43877;SDS011;29815;48.184;11.268;2023-01-24T09:18:36;42.28;;;23.35;;
43877;SDS011;29815;48.184;11.268;2023-01-24T09:21:05;45.30;;;24.60;;
43877;SDS011;29815;48.184;11.268;2023-01-24T09:23:35;48.15;;;25.67;;
43877;SDS011;29815;48.184;11.268;2023-01-24T09:26:06;45.60;;;24.25;;
43877;SDS011;29815;48.184;11.268;2023-01-24T09:28:35;53.40;;;25.23;;
43877;SDS011;29815;48.184;11.268;2023-01-24T09:31:06;46.17;;;24.35;;
43877;SDS011;29815;48.184;11.268;2023-01-24T09:33:37;39.47;;;21.10;;
43877;SDS011;29815;48.184;11.268;2023-01-24T09:36:25;45.55;;;23.52;;
43877;SDS011;29815;48.184;11.268;2023-01-24T09:38:55;43.55;;;23.27;;
43877;SDS011;29815;48.184;11.268;2023-01-24T09:41:41;47.60;;;25.13;;
43877;SDS011;29815;48.184;11.268;2023-01-24T09:44:39;41.08;;;21.17;;
43877;SDS011;29815;48.184;11.268;2023-01-24T09:47:19;45.50;;;23.30;;
43877;SDS011;29815;48.184;11.268;2023-01-24T09:49:54;48.90;;;24.88;;
43877;SDS011;29815;48.184;11.268;2023-01-24T09:52:30;41.80;;;21.38;;
43877;SDS011;29815;48.184;11.268;2023-01-24T09:55:08;42.28;;;22.17;;
43877;SDS011;29815;48.184;11.268;2023-01-24T10:01:11;47.83;;;24.88;;
43877;SDS011;29815;48.184;11.268;2023-01-24T10:03:43;48.27;;;24.37;;
43877;SDS011;29815;48.184;11.268;2023-01-24T10:06:14;53.63;;;24.67;;
43877;SDS011;29815;48.184;11.268;2023-01-24T10:08:51;41.88;;;21.80;;
43877;SDS011;29815;48.184;11.268;2023-01-24T10:11:35;45.17;;;22.13;;
43877;SDS011;29815;48.184;11.268;2023-01-24T10:14:29;47.60;;;24.95;;
43877;SDS011;29815;48.184;11.268;2023-01-24T10:17:21;52.60;;;25.02;;
43877;SDS011;29815;48.184;11.268;2023-01-24T10:20:33;48.92;;;26.10;;
43877;SDS011;29815;48.184;11.268;2023-01-24T10:23:24;48.80;;;24.70;;
43877;SDS011;29815;48.184;11.268;2023-01-24T10:25:56;43.20;;;21.60;;
43877;SDS011;29815;48.184;11.268;2023-01-24T10:28:33;55.10;;;26.40;;
43877;SDS011;29815;48.184;11.268;2023-01-24T10:31:08;49.25;;;24.10;;
43877;SDS011;29815;48.184;11.268;2023-01-24T10:33:45;52.15;;;25.73;;
43877;SDS011;29815;48.184;11.268;2023-01-24T10:36:19;44.85;;;24.25;;
43877;SDS011;29815;48.184;11.268;2023-01-24T10:39:02;53.00;;;27.25;;
43877;SDS011;29815;48.184;11.268;2023-01-24T10:41:31;51.92;;;26.98;;
43877;SDS011;29815;48.184;11.268;2023-01-24T10:44:03;48.65;;;25.00;;
43877;SDS011;29815;48.184;11.268;2023-01-24T10:46:53;47.38;;;23.40;;
43877;SDS011;29815;48.184;11.268;2023-01-24T10:50:00;51.75;;;25.30;;
43877;SDS011;29815;48.184;11.268;2023-01-24T10:52:33;62.47;;;31.45;;
43877;SDS011;29815;48.184;11.268;2023-01-24T10:55:21;67.63;;;37.85;;
43877;SDS011;29815;48.184;11.268;2023-01-24T10:57:57;59.20;;;30.40;;
43877;SDS011;29815;48.184;11.268;2023-01-24T11:00:29;46.13;;;23.13;;
43877;SDS011;29815;48.184;11.268;2023-01-24T11:03:15;48.40;;;24.48;;
43877;SDS011;29815;48.184;11.268;2023-01-24T11:05:49;51.17;;;25.85;;
43877;SDS011;29815;48.184;11.268;2023-01-24T11:08:22;49.45;;;25.55;;
43877;SDS011;29815;48.184;11.268;2023-01-24T11:10:54;55.65;;;27.95;;
43877;SDS011;29815;48.184;11.268;2023-01-24T11:13:29;47.28;;;24.50;;
43877;SDS011;29815;48.184;11.268;2023-01-24T11:16:04;46.00;;;23.92;;
43877;SDS011;29815;48.184;11.268;2023-01-24T11:18:51;50.38;;;26.70;;
43877;SDS011;29815;48.184;11.268;2023-01-24T11:21:25;44.60;;;23.52;;
43877;SDS011;29815;48.184;11.268;2023-01-24T11:24:08;40.83;;;24.20;;
43877;SDS011;29815;48.184;11.268;2023-01-24T11:26:51;38.25;;;23.80;;
43877;SDS011;29815;48.184;11.268;2023-01-24T11:29:26;42.60;;;23.60;;
43877;SDS011;29815;48.184;11.268;2023-01-24T11:31:56;38.20;;;21.17;;
43877;SDS011;29815;48.184;11.268;2023-01-24T11:34:44;37.58;;;22.75;;
43877;SDS011;29815;48.184;11.268;2023-01-24T11:37:28;40.05;;;23.33;;
43877;SDS011;29815;48.184;11.268;2023-01-24T11:40:37;41.53;;;22.02;;
43877;SDS011;29815;48.184;11.268;2023-01-24T11:43:18;39.53;;;22.58;;
43877;SDS011;29815;48.184;11.268;2023-01-24T11:46:15;43.05;;;21.52;;
43877;SDS011;29815;48.184;11.268;2023-01-24T11:49:04;44.03;;;23.20;;
43877;SDS011;29815;48.184;11.268;2023-01-24T11:52:24;49.13;;;26.20;;
43877;SDS011;29815;48.184;11.268;2023-01-24T11:55:17;41.20;;;23.45;;
43877;SDS011;29815;48.184;11.268;2023-01-24T11:58:14;47.10;;;23.70;;
43877;SDS011;29815;48.184;11.268;2023-01-24T12:01:25;45.13;;;26.65;;
43877;SDS011;29815;48.184;11.268;2023-01-24T12:04:22;37.78;;;21.42;;
43877;SDS011;29815;48.184;11.268;2023-01-24T12:07:40;37.22;;;21.15;;
43877;SDS011;29815;48.184;11.268;2023-01-24T12:10:26;30.85;;;19.90;;
43877;SDS011;29815;48.184;11.268;2023-01-24T12:13:08;37.85;;;20.05;;
43877;SDS011;29815;48.184;11.268;2023-01-24T12:15:53;35.78;;;20.77;;
43877;SDS011;29815;48.184;11.268;2023-01-24T12:18:45;36.05;;;21.73;;
43877;SDS011;29815;48.184;11.268;2023-01-24T12:24:03;34.75;;;20.25;;
43877;SDS011;29815;48.184;11.268;2023-01-24T12:26:41;36.00;;;21.30;;
43877;SDS011;29815;48.184;11.268;2023-01-24T12:29:18;33.30;;;20.63;;
43877;SDS011;29815;48.184;11.268;2023-01-24T12:31:54;38.53;;;22.55;;
43877;SDS011;29815;48.184;11.268;2023-01-24T12:34:34;39.85;;;22.58;;
43877;SDS011;29815;48.184;11.268;2023-01-24T12:37:16;41.60;;;23.85;;
43877;SDS011;29815;48.184;11.268;2023-01-24T12:40:00;41.22;;;24.30;;
43877;SDS011;29815;48.184;11.268;2023-01-24T12:42:45;36.30;;;21.35;;
43877;SDS011;29815;48.184;11.268;2023-01-24T12:45:30;41.53;;;23.35;;
43877;SDS011;29815;48.184;11.268;2023-01-24T12:48:21;36.78;;;22.17;;
43877;SDS011;29815;48.184;11.268;2023-01-24T12:51:08;32.88;;;20.30;;
43877;SDS011;29815;48.184;11.268;2023-01-24T12:53:54;33.80;;;21.00;;
43877;SDS011;29815;48.184;11.268;2023-01-24T12:56:36;41.67;;;24.10;;
43877;SDS011;29815;48.184;11.268;2023-01-24T12:59:22;37.97;;;22.95;;
43877;SDS011;29815;48.184;11.268;2023-01-24T13:05:05;41.05;;;23.98;;
43877;SDS011;29815;48.184;11.268;2023-01-24T13:07:54;38.88;;;21.88;;
43877;SDS011;29815;48.184;11.268;2023-01-24T13:10:46;34.03;;;21.85;;
43877;SDS011;29815;48.184;11.268;2023-01-24T13:13:31;35.25;;;19.40;;
43877;SDS011;29815;48.184;11.268;2023-01-24T13:16:11;36.42;;;21.60;;
43877;SDS011;29815;48.184;11.268;2023-01-24T13:19:32;38.65;;;21.42;;
43877;SDS011;29815;48.184;11.268;2023-01-24T13:22:24;34.40;;;19.77;;
43877;SDS011;29815;48.184;11.268;2023-01-24T13:25:18;34.65;;;21.65;;
43877;SDS011;29815;48.184;11.268;2023-01-24T13:28:11;35.10;;;21.35;;
43877;SDS011;29815;48.184;11.268;2023-01-24T13:30:56;32.72;;;20.40;;
43877;SDS011;29815;48.184;11.268;2023-01-24T13:33:42;35.13;;;21.45;;
43877;SDS011;29815;48.184;11.268;2023-01-24T13:36:18;40.78;;;23.58;;
43877;SDS011;29815;48.184;11.268;2023-01-24T13:38:52;40.28;;;21.50;;
43877;SDS011;29815;48.184;11.268;2023-01-24T13:41:32;34.42;;;22.23;;
43877;SDS011;29815;48.184;11.268;2023-01-24T13:46:59;38.10;;;23.45;;
43877;SDS011;29815;48.184;11.268;2023-01-24T13:50:10;38.72;;;22.73;;
43877;SDS011;29815;48.184;11.268;2023-01-24T13:52:45;36.78;;;22.80;;
43877;SDS011;29815;48.184;11.268;2023-01-24T13:58:30;35.72;;;21.75;;
43877;SDS011;29815;48.184;11.268;2023-01-24T14:01:02;40.95;;;23.13;;
43877;SDS011;29815;48.184;11.268;2023-01-24T14:03:35;37.67;;;21.70;;
43877;SDS011;29815;48.184;11.268;2023-01-24T14:06:12;36.83;;;22.33;;
43877;SDS011;29815;48.184;11.268;2023-01-24T14:08:44;35.15;;;20.70;;
43877;SDS011;29815;48.184;11.268;2023-01-24T14:11:24;34.03;;;20.58;;
43877;SDS011;29815;48.184;11.268;2023-01-24T14:20:25;36.40;;;21.52;;
43877;SDS011;29815;48.184;11.268;2023-01-24T14:23:10;33.67;;;20.13;;
43877;SDS011;29815;48.184;11.268;2023-01-24T14:25:49;33.67;;;20.13;;
43877;SDS011;29815;48.184;11.268;2023-01-24T14:28:23;39.08;;;23.33;;
43877;SDS011;29815;48.184;11.268;2023-01-24T14:31:01;38.88;;;23.10;;
43877;SDS011;29815;48.184;11.268;2023-01-24T14:33:42;37.35;;;20.40;;
43877;SDS011;29815;48.184;11.268;2023-01-24T14:36:24;39.92;;;22.25;;
43877;SDS011;29815;48.184;11.268;2023-01-24T14:41:56;40.08;;;23.25;;
43877;SDS011;29815;48.184;11.268;2023-01-24T14:44:32;41.78;;;24.25;;
43877;SDS011;29815;48.184;11.268;2023-01-24T14:47:05;41.78;;;23.52;;
43877;SDS011;29815;48.184;11.268;2023-01-24T14:49:47;37.10;;;23.83;;
43877;SDS011;29815;48.184;11.268;2023-01-24T14:52:21;39.22;;;24.05;;
43877;SDS011;29815;48.184;11.268;2023-01-24T14:54:54;42.40;;;22.73;;
43877;SDS011;29815;48.184;11.268;2023-01-24T14:57:28;32.45;;;19.60;;
43877;SDS011;29815;48.184;11.268;2023-01-24T15:00:01;36.88;;;21.67;;
43877;SDS011;29815;48.184;11.268;2023-01-24T15:02:36;35.25;;;20.90;;
43877;SDS011;29815;48.184;11.268;2023-01-24T15:05:14;37.00;;;21.40;;
43877;SDS011;29815;48.184;11.268;2023-01-24T15:07:54;38.47;;;21.38;;
43877;SDS011;29815;48.184;11.268;2023-01-24T15:10:26;39.35;;;22.90;;
43877;SDS011;29815;48.184;11.268;2023-01-24T15:12:59;34.35;;;21.38;;
43877;SDS011;29815;48.184;11.268;2023-01-24T15:18:02;37.17;;;20.48;;
43877;SDS011;29815;48.184;11.268;2023-01-24T15:20:37;36.38;;;20.90;;
43877;SDS011;29815;48.184;11.268;2023-01-24T15:23:16;33.42;;;21.52;;
43877;SDS011;29815;48.184;11.268;2023-01-24T15:25:52;36.88;;;22.08;;
43877;SDS011;29815;48.184;11.268;2023-01-24T15:28:23;35.38;;;21.30;;
43877;SDS011;29815;48.184;11.268;2023-01-24T15:30:57;34.65;;;22.63;;
43877;SDS011;29815;48.184;11.268;2023-01-24T15:33:38;41.63;;;23.25;;
43877;SDS011;29815;48.184;11.268;2023-01-24T15:36:18;38.47;;;23.38;;
43877;SDS011;29815;48.184;11.268;2023-01-24T15:38:54;33.20;;;21.02;;
43877;SDS011;29815;48.184;11.268;2023-01-24T15:41:27;34.20;;;21.10;;
43877;SDS011;29815;48.184;11.268;2023-01-24T15:44:12;36.53;;;21.50;;